Weather observations for the past three days for
Belleville, Scott AFB/MidAmerica Airport
Imperial (Metric)
Date Time (cdt) Wind (mph) Vis. (mi.) Weather Sky Cond. Temperature (ºF) Relative Humidity Wind Chill (°F) Heat Index (°F) Pressure Precipitation (in)
Air Dwpt 6 hour altimeter (in) sea level (mb) 1 hr 3 hr 6 hr
Max. Min.
05 07:55 Calm 10.00 Fair CLR 80.4 77.7 92% 87 29.93 1013.3
05 06:55 Calm 10.00 Fair CLR 75.6 74.7 80.2 74.1 97% 74 29.91 1012.7
05 05:55 S 3 10.00 Fair CLR 75.4 74.7 98% 74 29.9 1012.3
05 04:55 Calm 10.00 Fair CLR 77.2 76.3 97% 78 29.91 1012.6
05 03:55 Calm 10.00 Fair CLR 77.2 76.5 98% 78 29.9 1012.3
05 02:55 Calm 10.00 Fair CLR 78.3 77 96% 81 29.91 1012.6
05 01:55 Calm 10.00 Fair CLR 79.3 77.4 94% 84 29.91 1012.6
05 00:55 Calm 10.00 Fair CLR 80.1 76.8 93.9 80.1 90% 86 29.92 1012.9
04 23:55 Calm 10.00 Fair CLR 82.2 75.4 80% 89 29.92 1012.9
04 22:55 Calm 10.00 Fair CLR 82.2 76.1 82% 90 29.91 1012.6
04 21:55 Calm 10.00 Fair CLR 84.7 76.6 77% 95 29.92 1012.9
04 20:55 Calm 10.00 Fair CLR 84.7 77.7 80% 96 29.91 1012.7
04 19:55 Calm 10.00 Fair CLR 88.3 78.4 73% 103 29.89 1012.0
04 18:55 S 3 10.00 Fair CLR 94.3 74.5 100.4 94.3 53% 105 29.89 1011.9
04 17:55 SE 6 7.00 A Few Clouds FEW080 97.7 71.2 42% 106 29.88 1011.6
04 16:55 SW 7 7.00 A Few Clouds FEW060 99.1 68.2 37% 105 29.89 1011.9
04 15:55 SW 7 7.00 Partly Cloudy SCT060 100 68.9 36% 107 29.91 1012.6
04 14:55 SW 7 7.00 Partly Cloudy SCT055 100.2 70 38% 108 29.93 1013.3
04 13:55 Calm 10.00 Fair CLR 99.1 70.5 40% 107 29.95 1014.0
04 12:55 W 7 10.00 Fair CLR 99.1 72.7 99.3 76.3 43% 109 29.97 1014.6
04 11:55 W 10 10.00 Fair CLR 96.3 72.7 47% 106 29.98 1015.0
04 10:55 W 9 10.00 Fair CLR 95.2 74.1 51% 106 29.99 1015.3
04 09:55 W 6 10.00 Fair CLR 90.7 75.2 61% 102 29.98 1015.0
04 08:55 SW 5 10.00 Fair CLR 85.5 75.4 72% 95 29.98 1015.0
04 07:55 SW 6 10.00 Fair CLR 80.8 75.7 85% 87 29.97 1014.7
04 06:55 Calm 10.00 Fair CLR 77.2 74.7 81.3 74.5 92% 79 29.96 1014.4
04 05:55 Calm 10.00 Fair CLR 76.3 75 96% 76 29.94 1013.6
04 04:55 Calm 10.00 Fair CLR 75.2 74.5 98% 73 29.94 1013.6
04 03:55 Calm 10.00 Fair CLR 76.5 75.7 98% 76 29.93 1013.3
04 02:55 S 3 10.00 Fair CLR 77.4 76.1 96% 79 29.93 1013.3
04 01:55 S 5 10.00 Fair CLR 76.5 75.6 97% 76 29.93 1013.3
04 00:55 Calm 10.00 Fair CLR 81.1 75 92.1 78.6 82% 87 29.93 1013.3
03 23:55 Calm 10.00 Fair CLR 80.4 75.4 85% 86 29.93 1013.3
03 22:55 Calm 10.00 Fair CLR 82.4 74.3 77% 89 29.93 1013.3
03 21:55 Calm 9.00 Fair CLR 83.5 74.3 74% 91 29.92 1012.9
03 20:55 SW 5 9.00 Fair CLR 84.6 74.1 71% 92 29.92 1013.0
03 19:55 S 5 10.00 Fair CLR 87.1 73.8 65% 95 29.9 1012.3
03 18:55 S 6 10.00 Fair CLR 92.3 75.2 99.5 92.3 58% 104 29.89 1012.0
03 17:55 S 7 10.00 Fair CLR 96.1 72.5 47% 105 29.89 1011.9
03 16:55 S 9 10.00 Fair CLR 98.8 71.6 42% 108 29.89 1011.9
03 15:55 S 7 10.00 Fair CLR 97.5 71.2 43% 106 29.91 1012.6
03 14:55 W 9 10.00 Fair CLR 99 71.8 42% 108 29.92 1012.9
03 13:55 SW 9 10.00 Fair CLR 99.3 70.7 40% 107 29.94 1013.6
03 12:55 W 8 10.00 Fair CLR 97.7 72.7 98.2 75.6 45% 108 29.96 1014.3
03 11:55 W 12 10.00 A Few Clouds FEW060 96.3 73.2 48% 106 29.97 1014.6
03 10:55 W 8 10.00 Fair CLR 93.9 75.7 56% 107 29.98 1015.0
03 09:55 SW 7 10.00 Fair CLR 90.3 75.4 62% 101 29.98 1015.0
03 08:55 SW 6 10.00 Fair CLR 85.5 76.1 74% 95 29.98 1015.0
03 07:55 S 5 10.00 Fair CLR 79.7 76.1 89% 85 29.99 1015.4
03 06:55 Calm 10.00 Fair CLR 75.7 74.8 79.5 73.9 97% 75 29.98 1015.0
03 05:55 S 3 10.00 Fair CLR 74.7 73.9 98% 29.97 1014.7
03 04:55 Calm 10.00 Fair CLR 75.2 74.5 98% 73 29.96 1014.3
03 03:55 Calm 10.00 Fair CLR 76.8 75.2 95% 77 29.96 1014.3
03 02:55 SE 3 10.00 Fair CLR 77 75 94% 78 29.95 1014.0
03 01:55 SW 3 10.00 Fair CLR 78.1 74.1 88% 81 29.96 1014.3
03 00:55 S 3 10.00 Fair CLR 79.7 74.7 91.4 79 85% 84 29.96 1014.3
02 23:55 SW 3 10.00 Fair CLR 81 73.4 78% 86 29.95 1014.0
02 22:55 Calm 10.00 Fair CLR 82.4 72.9 73% 88 29.95 1014.0
02 21:55 Calm 10.00 Fair CLR 82.9 72.5 71% 88 29.95 1014.0
02 20:55 S 5 10.00 Fair CLR 84 72.7 69% 90 29.94 1013.6
02 19:55 S 6 10.00 Fair CLR 86 73.2 66% 93 29.93 1013.4
02 18:55 S 8 10.00 Fair CLR 91.6 73.6 100.2 91.6 56% 101 29.93 1013.4
02 17:55 S 10 10.00 Fair CLR 96.3 71.4 45% 104 29.92 1013.0
02 16:55 S 10 10.00 Fair CLR 98.6 70 40% 106 29.93 1013.3
02 15:55 SW 9 10.00 Fair CLR 99.5 69.3 38% 106 29.94 1013.6
02 14:55 SW 8 10.00 Fair CLR 100 68.2 36% 106 29.96 1014.3
02 13:55 SW 10 10.00 Fair CLR 99 69.6 39% 106 29.98 1015.0
02 12:55 W 6 10.00 Fair CLR 97.2 70.2 97.5 74.1 42% 104 29.99 1015.3
02 11:55 SW 8 10.00 Fair CLR 96.6 73 47% 107 30.01 1016.0
02 10:55 W 12 10.00 Fair CLR 94.3 72.7 50% 103 30.03 1016.7
02 09:55 W 7 10.00 Fair CLR 90.1 75.2 62% 101 30.02 1016.4
02 08:55 W 8 10.00 Fair CLR 86.2 75.2 70% 95 30.03 1016.7
Date Time (cdt) Wind (mph) Vis. (mi.) Weather Sky Cond. Air Dwpt Max. Min. Relative Humidity Wind Chill (°F) Heat Index (°F) altimeter (in) sea level (mb) 1 hr 3 hr 6 hr
6 hour
Temperature (ºF) Pressure Precipitation (in)